Terminal Aerodrome Forecast
Issued by NWS

Home | Current Version | Previous Version | Text Only | Print | Product List | Glossary On
Versions: 1 2 3 4 5 6 7 8 9 10 11 12 13 14 15 16 17 18 19 20 21 22 23 24 25 26 27 28 29 30 31 32 33 34
000
FTUS41 KRNK 291140
TAFBCB
TAF
KBCB 291140Z 2912/3012 01004KT 6SM -RA BR SCT005 OVC011
      TEMPO 2912/2915 4SM -RA BR BKN005
     FM291500 04006KT 5SM BR OVC005
     FM291800 07003KT 6SM BR OVC009
     FM300200 04003KT 4SM -DZ BR OVC004=

USA.gov is the U.S. government's official web portal to all federal, state and local government web resources and services.